This is the latest recevied weather packets stored in our database for station/object W4MSI. If no packets are shown the sender has not sent any weather packets the latest 10 day(s).
| Time | Temp. | Humidity | Pressure | Rain* | Wind** | Luminosity | Snow |
|---|---|---|---|---|---|---|---|
| 1778008725 | 21.67° C | 63% | 1008.4 hPa | 0 mm | - | 787 W/m² | - |
| 1778008424 | 21.67° C | 63% | 1008.5 hPa | 0 mm | - | 331 W/m² | - |
| 1778008120 | 21.67° C | 64% | 1008.9 hPa | 0 mm | - | 444 W/m² | - |
| 1778007816 | 21.67° C | 63% | 1009 hPa | 0 mm | - | 883 W/m² | - |
| 1778007512 | 21.11° C | 64% | 1008.9 hPa | 0 mm | - | 875 W/m² | - |
| 1778007208 | 21.11° C | 64% | 1008.9 hPa | 0 mm | - | 839 W/m² | - |
| 1778006904 | 20.56° C | 67% | 1008.9 hPa | 0 mm | - | 870 W/m² | - |
| 1778006602 | 21.11° C | 65% | 1009.1 hPa | 0 mm | - | 763 W/m² | - |
| 1778006299 | 21.11° C | 64% | 1009.1 hPa | 0 mm | - | 1026 W/m² | - |
| 1778005996 | 21.11° C | 64% | 1009.2 hPa | 0 mm | - | 967 W/m² | - |
| 1778005692 | 20.56° C | 69% | 1009 hPa | 0 mm | - | 967 W/m² | - |
| 1778005389 | 20.56° C | 67% | 1009 hPa | 0 mm | - | 537 W/m² | - |
| 1778005086 | 20° C | 71% | 1009.1 hPa | 0 mm | - | 863 W/m² | - |
| 1778004783 | 20° C | 71% | 1009.1 hPa | 0 mm | - | 897 W/m² | - |
| 1778004479 | 20° C | 71% | 1009.1 hPa | 0 mm | - | 914 W/m² | - |
| 1778004176 | 20° C | 73% | 1009.3 hPa | 0 mm | - | 413 W/m² | - |
| 1778003872 | 19.44° C | 76% | 1009.2 hPa | 0 mm | - | 615 W/m² | - |
| 1778003569 | 19.44° C | 75% | 1009.3 hPa | 0 mm | - | 444 W/m² | - |
| 1778003266 | 18.89° C | 76% | 1009.2 hPa | 0 mm | - | 550 W/m² | - |
| 1778002963 | 18.89° C | 77% | 1009.5 hPa | 0 mm | - | 412 W/m² | - |
| 1778002659 | 18.33° C | 80% | 1009.5 hPa | 0 mm | - | 344 W/m² | - |
| 1778002356 | 17.78° C | 79% | 1009.5 hPa | 0 mm | - | 341 W/m² | - |
| 1778002053 | 17.78° C | 80% | 1009.6 hPa | 0 mm | - | 245 W/m² | - |
| 1778001750 | 17.78° C | 81% | 1009.8 hPa | 0 mm | - | 218 W/m² | - |
| 1778001449 | 17.78° C | 82% | 1009.6 hPa | 0 mm | - | 210 W/m² | - |
* Rain latest hour (hover to see other rain measurements)
** Current wind speed in m/s (hover to see current wind gust speed)